CDT,Max TemperatureF,Mean TemperatureF,Min TemperatureF,Max Dew PointF,MeanDew PointF,Min DewpointF,Max Humidity, Mean Humidity, Min Humidity, Max Sea Level PressureIn, Mean Sea Level PressureIn, Min Sea Level PressureIn, Max VisibilityMiles, Mean VisibilityMiles, Min VisibilityMiles, Max Wind SpeedMPH, Mean Wind SpeedMPH, Max Gust SpeedMPH,PrecipitationIn, CloudCover, Events, WindDirDegrees
2013-10-1,90,76,62,72,69,59,100,74,47,29.94,29.87,29.80,10,7,0,15,5,18,0.00,5,Fog,163
2013-10-2,91,83,74,73,72,67,94,72,49,29.97,29.90,29.82,10,9,2,16,8,20,T,6,,144
2013-10-3,91,83,74,74,71,67,94,71,47,29.92,29.87,29.80,10,10,6,17,8,24,0.00,5,,178
2013-10-4,91,81,70,73,70,67,100,75,49,29.93,29.88,29.80,10,9,2,22,10,31,0.00,4,,175
2013-10-5,89,76,62,73,65,41,100,73,46,30.06,29.93,29.87,10,8,0,23,8,30,0.00,5,,131
2013-10-6,81,66,51,55,47,34,100,61,21,30.14,30.09,30.03,10,9,3,21,8,25,0.76,3,Rain-Thunderstorm,344
2013-10-7,85,66,47,55,45,38,93,58,22,30.17,30.10,30.04,10,10,10,9,1,12,0.00,0,,55
2013-10-8,83,66,49,54,49,45,96,62,28,30.10,30.04,29.98,10,10,10,10,2,14,0.00,1,,182
2013-10-9,84,67,49,60,55,48,100,70,40,30.07,30.00,29.94,10,10,8,15,5,21,0.00,1,,158
2013-10-10,86,71,56,67,61,55,100,73,45,30.04,29.96,29.87,10,10,5,17,6,22,0.00,3,,164
2013-10-11,88,79,70,73,71,66,93,76,59,29.95,29.87,29.81,10,10,10,21,9,24,T,5,Rain,167
2013-10-12,92,83,74,75,73,69,94,73,52,30.02,29.95,29.88,10,9,3,22,7,29,0.94,6,Rain-Thunderstorm,150
2013-10-13,77,73,68,75,71,65,100,94,87,30.16,30.08,29.99,10,6,1,30,7,37,3.16,8,Rain-Thunderstorm,70
2013-10-14,80,76,71,74,72,70,100,88,76,30.09,30.01,29.91,10,6,2,20,5,26,0.26,8,Rain,143
2013-10-15,85,72,59,72,69,56,100,81,61,30.00,29.94,29.86,10,8,0,21,8,26,T,6,Rain,200
2013-10-16,62,59,55,57,55,53,93,89,84,30.08,30.03,29.97,10,8,1,18,10,25,0.93,8,Rain,354
2013-10-17,73,62,51,55,49,45,93,69,44,30.13,30.05,29.99,10,10,10,14,5,18,0.00,4,,9
2013-10-18,73,63,52,63,58,51,100,82,64,30.01,29.95,29.88,10,10,10,16,3,20,T,8,,115
2013-10-19,67,57,46,61,45,37,93,65,37,30.21,30.12,30.00,10,10,9,23,12,28,T,3,Rain,3
2013-10-20,74,56,38,51,44,39,100,67,33,30.11,30.02,29.92,10,10,8,14,4,18,0.00,1,,180
2013-10-21,79,67,55,67,61,49,100,82,64,30.05,29.95,29.89,10,9,0,23,4,31,0.25,6,Fog-Rain-Thunderstorm,54
2013-10-22,75,62,49,56,47,38,89,58,27,30.16,30.10,30.05,10,10,10,17,8,21,0.00,2,,349
2013-10-23,82,64,46,50,45,40,93,58,23,30.17,30.12,30.09,10,10,10,12,3,15,0.00,0,,222
2013-10-24,81,63,45,54,48,44,100,65,30,30.22,30.17,30.12,10,10,10,12,2,15,0.00,1,,173
2013-10-25,79,63,47,60,55,47,96,73,50,30.33,30.25,30.20,10,10,6,14,4,18,0.00,3,,115
2013-10-26,82,69,56,64,60,56,93,72,51,30.22,30.15,30.05,10,8,6,18,7,24,0.00,5,,145
2013-10-27,74,68,61,64,63,61,93,81,68,30.12,30.06,30.00,10,8,0,13,3,22,0.37,7,Rain-Thunderstorm,72
2013-10-28,82,74,65,69,66,63,100,79,58,30.10,30.03,29.96,10,6,0,18,8,23,T,7,Fog-Rain,143
2013-10-29,85,78,70,70,68,66,90,74,58,30.08,30.02,29.95,10,10,10,21,11,26,0.00,6,,165
2013-10-30,85,79,72,75,72,68,94,82,69,30.04,29.90,29.78,10,9,2,21,10,39,0.64,7,Rain-Thunderstorm,171
2013-10-31,82,67,51,72,62,38,100,61,21,29.89,29.82,29.76,10,8,0,26,6,33,2.49,6,Fog-Rain-Thunderstorm,232